Terminal Aerodrome Forecast
Issued by NWS

Home | Current Version | Previous Version | Text Only | Print | Product List | Glossary On
Versions: 1 2 3 4 5 6 7 8 9 10 11 12 13 14 15 16 17 18 19 20 21 22 23 24 25 26 27 28 29
000
FTUS45 KCYS 052347
TAFAIA
TAF
KAIA 052347Z 0600/0624 34012KT P6SM SCT080 BKN200
     FM060030 36020G29KT 5SM -TSRA SCT050 BKN080CB
     FM060100 36016G24KT P6SM SCT015 BKN050
     FM060600 01015G22KT 4SM -RA OVC015
     FM061400 36011KT P6SM OVC050=

USA.gov is the U.S. government's official web portal to all federal, state and local government web resources and services.